sensor_id;sensor_type;location;lat;lon;timestamp;temperature;humidity
28839;DHT22;15971;50.772;6.100;2022-07-30T00:02:04;19.80;95.90
28839;DHT22;15971;50.772;6.100;2022-07-30T00:04:29;19.80;95.80
28839;DHT22;15971;50.772;6.100;2022-07-30T00:06:57;19.80;96.20
28839;DHT22;15971;50.772;6.100;2022-07-30T00:09:22;19.80;95.90
28839;DHT22;15971;50.772;6.100;2022-07-30T00:11:48;19.80;96.00
28839;DHT22;15971;50.772;6.100;2022-07-30T00:14:14;19.80;95.90
28839;DHT22;15971;50.772;6.100;2022-07-30T00:16:40;19.80;96.00
28839;DHT22;15971;50.772;6.100;2022-07-30T00:19:06;19.70;96.00
28839;DHT22;15971;50.772;6.100;2022-07-30T00:21:31;19.80;96.10
28839;DHT22;15971;50.772;6.100;2022-07-30T00:23:57;19.70;96.10
28839;DHT22;15971;50.772;6.100;2022-07-30T00:26:23;19.70;96.10
28839;DHT22;15971;50.772;6.100;2022-07-30T00:28:48;19.80;96.10
28839;DHT22;15971;50.772;6.100;2022-07-30T00:31:14;19.80;96.00
28839;DHT22;15971;50.772;6.100;2022-07-30T00:33:39;19.80;96.20
28839;DHT22;15971;50.772;6.100;2022-07-30T00:36:05;19.80;96.20
28839;DHT22;15971;50.772;6.100;2022-07-30T00:38:31;19.80;95.80
28839;DHT22;15971;50.772;6.100;2022-07-30T00:40:56;19.80;95.90
28839;DHT22;15971;50.772;6.100;2022-07-30T00:43:22;19.80;95.90
28839;DHT22;15971;50.772;6.100;2022-07-30T00:45:48;19.70;95.50
28839;DHT22;15971;50.772;6.100;2022-07-30T00:48:14;19.70;95.60
28839;DHT22;15971;50.772;6.100;2022-07-30T00:50:40;19.60;95.50
28839;DHT22;15971;50.772;6.100;2022-07-30T00:53:06;19.60;95.70
28839;DHT22;15971;50.772;6.100;2022-07-30T00:55:32;19.60;95.90
28839;DHT22;15971;50.772;6.100;2022-07-30T00:57:58;19.60;95.90
28839;DHT22;15971;50.772;6.100;2022-07-30T01:00:24;19.50;95.80
28839;DHT22;15971;50.772;6.100;2022-07-30T01:02:50;19.50;95.60
28839;DHT22;15971;50.772;6.100;2022-07-30T01:05:15;19.20;95.60
28839;DHT22;15971;50.772;6.100;2022-07-30T01:07:41;19.20;96.00
28839;DHT22;15971;50.772;6.100;2022-07-30T01:10:09;19.20;95.80
28839;DHT22;15971;50.772;6.100;2022-07-30T01:12:35;19.20;95.70
28839;DHT22;15971;50.772;6.100;2022-07-30T01:15:03;19.10;95.70
28839;DHT22;15971;50.772;6.100;2022-07-30T01:17:29;19.00;95.80
28839;DHT22;15971;50.772;6.100;2022-07-30T01:20:02;19.00;95.80
28839;DHT22;15971;50.772;6.100;2022-07-30T01:28:07;19.00;95.90
28839;DHT22;15971;50.772;6.100;2022-07-30T01:30:37;19.00;95.90
28839;DHT22;15971;50.772;6.100;2022-07-30T01:33:05;19.00;95.70
28839;DHT22;15971;50.772;6.100;2022-07-30T01:35:32;18.90;95.90
28839;DHT22;15971;50.772;6.100;2022-07-30T01:37:59;18.90;95.80
28839;DHT22;15971;50.772;6.100;2022-07-30T01:40:27;18.90;95.70
28839;DHT22;15971;50.772;6.100;2022-07-30T01:42:54;18.90;95.90
28839;DHT22;15971;50.772;6.100;2022-07-30T01:45:23;18.90;95.90
28839;DHT22;15971;50.772;6.100;2022-07-30T01:47:51;18.90;95.90
28839;DHT22;15971;50.772;6.100;2022-07-30T01:50:18;18.80;96.00
28839;DHT22;15971;50.772;6.100;2022-07-30T01:52:47;18.80;95.90
28839;DHT22;15971;50.772;6.100;2022-07-30T01:55:16;18.80;96.30
28839;DHT22;15971;50.772;6.100;2022-07-30T01:57:44;18.70;96.20
28839;DHT22;15971;50.772;6.100;2022-07-30T02:00:11;18.70;96.30
28839;DHT22;15971;50.772;6.100;2022-07-30T02:02:38;18.70;96.50
28839;DHT22;15971;50.772;6.100;2022-07-30T02:05:06;18.70;96.50
28839;DHT22;15971;50.772;6.100;2022-07-30T02:07:39;18.60;96.60
28839;DHT22;15971;50.772;6.100;2022-07-30T02:10:13;18.60;96.60
28839;DHT22;15971;50.772;6.100;2022-07-30T02:12:50;18.60;96.90
28839;DHT22;15971;50.772;6.100;2022-07-30T02:15:42;18.50;96.90
28839;DHT22;15971;50.772;6.100;2022-07-30T02:18:32;18.40;97.20
28839;DHT22;15971;50.772;6.100;2022-07-30T02:21:05;18.40;97.30
28839;DHT22;15971;50.772;6.100;2022-07-30T02:23:38;18.30;97.50
28839;DHT22;15971;50.772;6.100;2022-07-30T02:26:06;18.20;97.60
28839;DHT22;15971;50.772;6.100;2022-07-30T02:28:36;18.10;97.90
28839;DHT22;15971;50.772;6.100;2022-07-30T02:31:04;18.20;98.00
28839;DHT22;15971;50.772;6.100;2022-07-30T02:33:35;18.20;97.90
28839;DHT22;15971;50.772;6.100;2022-07-30T02:36:02;18.10;98.00
28839;DHT22;15971;50.772;6.100;2022-07-30T02:38:30;17.90;98.30
28839;DHT22;15971;50.772;6.100;2022-07-30T02:40:58;17.90;98.60
28839;DHT22;15971;50.772;6.100;2022-07-30T02:43:25;17.80;98.70
28839;DHT22;15971;50.772;6.100;2022-07-30T02:45:51;17.80;98.90
28839;DHT22;15971;50.772;6.100;2022-07-30T02:48:20;17.70;99.00
28839;DHT22;15971;50.772;6.100;2022-07-30T02:50:48;17.70;99.00
28839;DHT22;15971;50.772;6.100;2022-07-30T02:53:15;17.80;98.80
28839;DHT22;15971;50.772;6.100;2022-07-30T02:55:43;17.70;99.10
28839;DHT22;15971;50.772;6.100;2022-07-30T02:58:10;17.70;99.30
28839;DHT22;15971;50.772;6.100;2022-07-30T03:00:36;17.60;99.30
28839;DHT22;15971;50.772;6.100;2022-07-30T03:03:04;17.60;99.40
28839;DHT22;15971;50.772;6.100;2022-07-30T03:05:32;17.70;99.30
28839;DHT22;15971;50.772;6.100;2022-07-30T03:07:59;17.60;99.40
28839;DHT22;15971;50.772;6.100;2022-07-30T03:10:26;17.50;99.60
28839;DHT22;15971;50.772;6.100;2022-07-30T03:12:53;17.50;99.60
28839;DHT22;15971;50.772;6.100;2022-07-30T03:15:19;17.50;99.70
28839;DHT22;15971;50.772;6.100;2022-07-30T03:17:49;17.50;99.70
28839;DHT22;15971;50.772;6.100;2022-07-30T03:20:19;17.50;99.50
28839;DHT22;15971;50.772;6.100;2022-07-30T03:22:49;17.50;99.60
28839;DHT22;15971;50.772;6.100;2022-07-30T03:25:18;17.50;99.60
28839;DHT22;15971;50.772;6.100;2022-07-30T03:27:46;17.40;99.80
28839;DHT22;15971;50.772;6.100;2022-07-30T03:30:12;17.40;99.70
28839;DHT22;15971;50.772;6.100;2022-07-30T03:32:39;17.30;99.80
28839;DHT22;15971;50.772;6.100;2022-07-30T03:35:06;17.30;99.90
28839;DHT22;15971;50.772;6.100;2022-07-30T03:37:34;17.30;99.90
28839;DHT22;15971;50.772;6.100;2022-07-30T03:40:01;17.20;99.90
28839;DHT22;15971;50.772;6.100;2022-07-30T03:42:28;17.30;99.90
28839;DHT22;15971;50.772;6.100;2022-07-30T03:44:54;17.30;99.90
28839;DHT22;15971;50.772;6.100;2022-07-30T03:47:21;17.30;99.90
28839;DHT22;15971;50.772;6.100;2022-07-30T03:49:47;17.20;99.90
28839;DHT22;15971;50.772;6.100;2022-07-30T03:52:13;17.10;99.90
28839;DHT22;15971;50.772;6.100;2022-07-30T03:54:39;17.10;99.90
28839;DHT22;15971;50.772;6.100;2022-07-30T03:57:05;17.10;99.90
28839;DHT22;15971;50.772;6.100;2022-07-30T03:59:32;17.10;99.90
28839;DHT22;15971;50.772;6.100;2022-07-30T04:02:02;17.20;99.90
28839;DHT22;15971;50.772;6.100;2022-07-30T04:04:28;17.20;99.90
28839;DHT22;15971;50.772;6.100;2022-07-30T04:06:57;17.20;99.90
28839;DHT22;15971;50.772;6.100;2022-07-30T04:09:23;17.20;99.90
28839;DHT22;15971;50.772;6.100;2022-07-30T04:11:49;17.20;99.90
28839;DHT22;15971;50.772;6.100;2022-07-30T04:14:15;17.10;99.90
28839;DHT22;15971;50.772;6.100;2022-07-30T04:16:51;17.10;99.90
28839;DHT22;15971;50.772;6.100;2022-07-30T04:19:22;17.00;99.90
28839;DHT22;15971;50.772;6.100;2022-07-30T04:21:50;17.10;99.90
28839;DHT22;15971;50.772;6.100;2022-07-30T04:24:17;17.20;99.90
28839;DHT22;15971;50.772;6.100;2022-07-30T04:26:44;17.10;99.90
28839;DHT22;15971;50.772;6.100;2022-07-30T04:29:11;17.20;99.90
28839;DHT22;15971;50.772;6.100;2022-07-30T04:31:36;17.20;99.90
28839;DHT22;15971;50.772;6.100;2022-07-30T04:34:03;17.20;99.90
28839;DHT22;15971;50.772;6.100;2022-07-30T04:36:31;17.20;99.90
28839;DHT22;15971;50.772;6.100;2022-07-30T04:38:58;17.30;99.90
28839;DHT22;15971;50.772;6.100;2022-07-30T04:41:23;17.40;99.90
28839;DHT22;15971;50.772;6.100;2022-07-30T04:43:50;17.50;99.90
28839;DHT22;15971;50.772;6.100;2022-07-30T04:46:15;17.50;99.90
28839;DHT22;15971;50.772;6.100;2022-07-30T04:48:41;17.60;99.90
28839;DHT22;15971;50.772;6.100;2022-07-30T04:51:33;17.70;99.90
28839;DHT22;15971;50.772;6.100;2022-07-30T04:54:01;17.90;99.90
28839;DHT22;15971;50.772;6.100;2022-07-30T04:56:29;18.10;99.90
28839;DHT22;15971;50.772;6.100;2022-07-30T04:58:56;18.30;99.90
28839;DHT22;15971;50.772;6.100;2022-07-30T05:01:23;18.20;99.90
28839;DHT22;15971;50.772;6.100;2022-07-30T05:03:51;18.20;99.90
28839;DHT22;15971;50.772;6.100;2022-07-30T05:06:19;18.30;99.90
28839;DHT22;15971;50.772;6.100;2022-07-30T05:08:45;18.20;99.90
28839;DHT22;15971;50.772;6.100;2022-07-30T05:11:14;18.30;99.90
28839;DHT22;15971;50.772;6.100;2022-07-30T05:13:44;18.40;99.90
28839;DHT22;15971;50.772;6.100;2022-07-30T05:16:10;18.20;99.90
28839;DHT22;15971;50.772;6.100;2022-07-30T05:18:36;18.20;99.90
28839;DHT22;15971;50.772;6.100;2022-07-30T05:21:03;18.20;99.90
28839;DHT22;15971;50.772;6.100;2022-07-30T05:23:29;18.10;99.90
28839;DHT22;15971;50.772;6.100;2022-07-30T05:25:55;18.10;99.90
28839;DHT22;15971;50.772;6.100;2022-07-30T05:28:20;18.20;99.90
28839;DHT22;15971;50.772;6.100;2022-07-30T05:30:47;18.20;99.90
28839;DHT22;15971;50.772;6.100;2022-07-30T05:33:13;18.30;99.90
28839;DHT22;15971;50.772;6.100;2022-07-30T05:35:38;18.70;99.90
28839;DHT22;15971;50.772;6.100;2022-07-30T05:38:04;18.80;99.90
28839;DHT22;15971;50.772;6.100;2022-07-30T05:40:29;19.00;99.90
28839;DHT22;15971;50.772;6.100;2022-07-30T05:42:55;19.10;99.90
28839;DHT22;15971;50.772;6.100;2022-07-30T05:45:20;19.20;99.90
28839;DHT22;15971;50.772;6.100;2022-07-30T05:47:46;19.20;99.90
28839;DHT22;15971;50.772;6.100;2022-07-30T05:50:12;19.10;99.90
28839;DHT22;15971;50.772;6.100;2022-07-30T05:52:38;19.10;99.90
28839;DHT22;15971;50.772;6.100;2022-07-30T05:55:04;18.40;99.90
28839;DHT22;15971;50.772;6.100;2022-07-30T05:57:30;18.20;99.90
28839;DHT22;15971;50.772;6.100;2022-07-30T05:59:55;17.90;99.90
28839;DHT22;15971;50.772;6.100;2022-07-30T06:02:21;17.90;99.90
28839;DHT22;15971;50.772;6.100;2022-07-30T06:04:46;17.60;99.90
28839;DHT22;15971;50.772;6.100;2022-07-30T06:07:12;17.50;99.90
28839;DHT22;15971;50.772;6.100;2022-07-30T06:09:38;17.20;99.90
28839;DHT22;15971;50.772;6.100;2022-07-30T06:12:04;16.90;99.90
28839;DHT22;15971;50.772;6.100;2022-07-30T06:14:29;16.90;99.90
28839;DHT22;15971;50.772;6.100;2022-07-30T06:16:56;17.20;99.90
28839;DHT22;15971;50.772;6.100;2022-07-30T06:19:22;17.30;99.90
28839;DHT22;15971;50.772;6.100;2022-07-30T06:21:47;17.50;99.90
28839;DHT22;15971;50.772;6.100;2022-07-30T06:24:13;17.70;99.90
28839;DHT22;15971;50.772;6.100;2022-07-30T06:26:38;18.00;99.90
28839;DHT22;15971;50.772;6.100;2022-07-30T06:29:05;18.10;99.90
28839;DHT22;15971;50.772;6.100;2022-07-30T06:31:30;18.20;99.90
28839;DHT22;15971;50.772;6.100;2022-07-30T06:33:56;18.30;99.90
28839;DHT22;15971;50.772;6.100;2022-07-30T06:36:21;18.10;99.90
28839;DHT22;15971;50.772;6.100;2022-07-30T06:38:47;17.90;99.90
28839;DHT22;15971;50.772;6.100;2022-07-30T06:41:13;17.60;99.90
28839;DHT22;15971;50.772;6.100;2022-07-30T06:43:40;17.60;99.90
28839;DHT22;15971;50.772;6.100;2022-07-30T06:46:05;17.50;99.90
28839;DHT22;15971;50.772;6.100;2022-07-30T06:48:31;17.70;99.90
28839;DHT22;15971;50.772;6.100;2022-07-30T06:50:57;17.70;99.90
28839;DHT22;15971;50.772;6.100;2022-07-30T06:53:23;17.90;99.90
28839;DHT22;15971;50.772;6.100;2022-07-30T06:55:49;18.20;99.90
28839;DHT22;15971;50.772;6.100;2022-07-30T06:58:15;18.30;99.90
28839;DHT22;15971;50.772;6.100;2022-07-30T07:00:41;18.30;99.90
28839;DHT22;15971;50.772;6.100;2022-07-30T07:03:09;18.40;99.90
28839;DHT22;15971;50.772;6.100;2022-07-30T07:05:35;18.50;99.90
28839;DHT22;15971;50.772;6.100;2022-07-30T07:08:00;18.60;99.90
28839;DHT22;15971;50.772;6.100;2022-07-30T07:10:26;18.70;99.90
28839;DHT22;15971;50.772;6.100;2022-07-30T07:12:52;18.80;99.90
28839;DHT22;15971;50.772;6.100;2022-07-30T07:15:18;18.90;99.90
28839;DHT22;15971;50.772;6.100;2022-07-30T07:17:44;18.80;99.90
28839;DHT22;15971;50.772;6.100;2022-07-30T07:20:10;18.50;99.90
28839;DHT22;15971;50.772;6.100;2022-07-30T07:22:35;18.40;99.90
28839;DHT22;15971;50.772;6.100;2022-07-30T07:25:01;18.20;99.90
28839;DHT22;15971;50.772;6.100;2022-07-30T07:27:26;18.10;99.90
28839;DHT22;15971;50.772;6.100;2022-07-30T07:29:52;18.70;99.90
28839;DHT22;15971;50.772;6.100;2022-07-30T07:32:18;18.90;99.90
28839;DHT22;15971;50.772;6.100;2022-07-30T07:34:43;19.40;99.90
28839;DHT22;15971;50.772;6.100;2022-07-30T07:37:09;19.50;99.90
28839;DHT22;15971;50.772;6.100;2022-07-30T07:39:34;19.80;99.90
28839;DHT22;15971;50.772;6.100;2022-07-30T07:42:00;20.30;99.90
28839;DHT22;15971;50.772;6.100;2022-07-30T07:44:26;20.70;99.90
28839;DHT22;15971;50.772;6.100;2022-07-30T07:46:51;21.10;99.90
28839;DHT22;15971;50.772;6.100;2022-07-30T07:49:17;21.40;99.90
28839;DHT22;15971;50.772;6.100;2022-07-30T07:51:42;21.50;99.90
28839;DHT22;15971;50.772;6.100;2022-07-30T07:54:08;21.80;99.90
28839;DHT22;15971;50.772;6.100;2022-07-30T07:56:33;22.30;99.90
28839;DHT22;15971;50.772;6.100;2022-07-30T07:58:59;21.20;99.90
28839;DHT22;15971;50.772;6.100;2022-07-30T08:01:25;21.40;99.90
28839;DHT22;15971;50.772;6.100;2022-07-30T08:03:50;20.80;99.90
28839;DHT22;15971;50.772;6.100;2022-07-30T08:06:16;20.90;99.90
28839;DHT22;15971;50.772;6.100;2022-07-30T08:08:41;21.30;99.90
28839;DHT22;15971;50.772;6.100;2022-07-30T08:11:07;21.00;99.90
28839;DHT22;15971;50.772;6.100;2022-07-30T08:13:32;20.60;99.90
28839;DHT22;15971;50.772;6.100;2022-07-30T08:16:00;20.30;99.90
28839;DHT22;15971;50.772;6.100;2022-07-30T08:18:25;20.60;99.90
28839;DHT22;15971;50.772;6.100;2022-07-30T08:20:51;20.50;99.90
28839;DHT22;15971;50.772;6.100;2022-07-30T08:23:17;20.60;99.90
28839;DHT22;15971;50.772;6.100;2022-07-30T08:25:44;20.80;99.90
28839;DHT22;15971;50.772;6.100;2022-07-30T08:28:10;21.30;99.90
28839;DHT22;15971;50.772;6.100;2022-07-30T08:30:35;21.30;99.90
28839;DHT22;15971;50.772;6.100;2022-07-30T08:33:01;21.70;99.90
28839;DHT22;15971;50.772;6.100;2022-07-30T08:35:27;21.60;99.90
28839;DHT22;15971;50.772;6.100;2022-07-30T08:37:53;21.80;99.90
28839;DHT22;15971;50.772;6.100;2022-07-30T08:40:19;21.90;99.90
28839;DHT22;15971;50.772;6.100;2022-07-30T08:42:45;21.30;99.90
28839;DHT22;15971;50.772;6.100;2022-07-30T08:45:12;20.70;99.90
28839;DHT22;15971;50.772;6.100;2022-07-30T08:47:40;20.40;99.90
28839;DHT22;15971;50.772;6.100;2022-07-30T08:50:07;20.10;99.90
28839;DHT22;15971;50.772;6.100;2022-07-30T08:52:35;20.40;99.90
28839;DHT22;15971;50.772;6.100;2022-07-30T08:55:01;20.60;99.90
28839;DHT22;15971;50.772;6.100;2022-07-30T08:57:29;20.50;99.90
28839;DHT22;15971;50.772;6.100;2022-07-30T08:59:58;20.60;99.90
28839;DHT22;15971;50.772;6.100;2022-07-30T09:02:24;20.70;99.90
28839;DHT22;15971;50.772;6.100;2022-07-30T09:04:51;20.70;99.90
28839;DHT22;15971;50.772;6.100;2022-07-30T09:07:17;20.80;99.90
28839;DHT22;15971;50.772;6.100;2022-07-30T09:09:42;21.20;99.90
28839;DHT22;15971;50.772;6.100;2022-07-30T09:15:12;20.90;99.70
28839;DHT22;15971;50.772;6.100;2022-07-30T09:17:49;20.80;99.90
28839;DHT22;15971;50.772;6.100;2022-07-30T09:20:16;21.10;99.90
28839;DHT22;15971;50.772;6.100;2022-07-30T09:22:45;21.30;99.80
28839;DHT22;15971;50.772;6.100;2022-07-30T09:25:11;21.20;99.90
28839;DHT22;15971;50.772;6.100;2022-07-30T09:27:45;21.50;99.20
28839;DHT22;15971;50.772;6.100;2022-07-30T09:30:11;21.30;98.80
28839;DHT22;15971;50.772;6.100;2022-07-30T09:32:53;20.90;98.70
28839;DHT22;15971;50.772;6.100;2022-07-30T09:35:19;21.10;99.30
28839;DHT22;15971;50.772;6.100;2022-07-30T09:37:46;21.20;99.90
28839;DHT22;15971;50.772;6.100;2022-07-30T09:40:16;21.60;99.10
28839;DHT22;15971;50.772;6.100;2022-07-30T09:42:43;21.60;98.50
28839;DHT22;15971;50.772;6.100;2022-07-30T09:45:11;21.40;97.40
28839;DHT22;15971;50.772;6.100;2022-07-30T09:47:42;21.10;97.40
28839;DHT22;15971;50.772;6.100;2022-07-30T09:50:13;21.30;97.30
28839;DHT22;15971;50.772;6.100;2022-07-30T09:52:42;21.60;97.20
28839;DHT22;15971;50.772;6.100;2022-07-30T09:55:08;21.60;97.00
28839;DHT22;15971;50.772;6.100;2022-07-30T09:57:34;21.40;97.00
28839;DHT22;15971;50.772;6.100;2022-07-30T10:00:18;21.20;97.00
28839;DHT22;15971;50.772;6.100;2022-07-30T10:02:44;21.60;97.00
28839;DHT22;15971;50.772;6.100;2022-07-30T10:05:14;21.80;96.30
28839;DHT22;15971;50.772;6.100;2022-07-30T10:10:12;22.40;96.20
28839;DHT22;15971;50.772;6.100;2022-07-30T10:12:38;22.50;95.50
28839;DHT22;15971;50.772;6.100;2022-07-30T10:15:05;22.40;95.90
28839;DHT22;15971;50.772;6.100;2022-07-30T10:17:31;22.40;94.80
28839;DHT22;15971;50.772;6.100;2022-07-30T10:19:58;22.50;94.80
28839;DHT22;15971;50.772;6.100;2022-07-30T10:22:24;22.60;94.30
28839;DHT22;15971;50.772;6.100;2022-07-30T10:24:51;22.50;94.80
28839;DHT22;15971;50.772;6.100;2022-07-30T10:27:17;22.30;94.10
28839;DHT22;15971;50.772;6.100;2022-07-30T10:29:43;22.50;94.10
28839;DHT22;15971;50.772;6.100;2022-07-30T10:32:09;22.60;93.90
28839;DHT22;15971;50.772;6.100;2022-07-30T10:34:37;22.80;93.80
28839;DHT22;15971;50.772;6.100;2022-07-30T10:37:04;22.80;93.50
28839;DHT22;15971;50.772;6.100;2022-07-30T10:39:42;22.90;93.10
28839;DHT22;15971;50.772;6.100;2022-07-30T10:42:32;22.90;92.60
28839;DHT22;15971;50.772;6.100;2022-07-30T10:47:25;23.20;92.10
28839;DHT22;15971;50.772;6.100;2022-07-30T10:53:02;22.80;91.70
28839;DHT22;15971;50.772;6.100;2022-07-30T10:55:30;22.70;92.20
28839;DHT22;15971;50.772;6.100;2022-07-30T10:58:01;22.80;92.30
28839;DHT22;15971;50.772;6.100;2022-07-30T11:00:32;22.80;92.50
28839;DHT22;15971;50.772;6.100;2022-07-30T11:05:35;23.20;91.70
28839;DHT22;15971;50.772;6.100;2022-07-30T11:08:37;23.00;91.80
28839;DHT22;15971;50.772;6.100;2022-07-30T11:11:05;23.00;92.10
28839;DHT22;15971;50.772;6.100;2022-07-30T11:13:59;22.90;92.30
28839;DHT22;15971;50.772;6.100;2022-07-30T11:19:16;23.30;91.60
28839;DHT22;15971;50.772;6.100;2022-07-30T11:21:44;23.60;91.20
28839;DHT22;15971;50.772;6.100;2022-07-30T11:24:41;23.80;91.00
28839;DHT22;15971;50.772;6.100;2022-07-30T11:27:06;23.70;90.40
28839;DHT22;15971;50.772;6.100;2022-07-30T11:29:38;23.50;90.70
28839;DHT22;15971;50.772;6.100;2022-07-30T11:34:49;23.80;89.80
28839;DHT22;15971;50.772;6.100;2022-07-30T11:37:15;24.10;88.70
28839;DHT22;15971;50.772;6.100;2022-07-30T11:42:32;23.70;87.40
28839;DHT22;15971;50.772;6.100;2022-07-30T11:47:46;24.10;87.80
28839;DHT22;15971;50.772;6.100;2022-07-30T11:50:27;24.00;88.20
28839;DHT22;15971;50.772;6.100;2022-07-30T11:53:02;24.00;87.40
28839;DHT22;15971;50.772;6.100;2022-07-30T11:55:34;24.10;87.30
28839;DHT22;15971;50.772;6.100;2022-07-30T11:58:05;24.40;87.10
28839;DHT22;15971;50.772;6.100;2022-07-30T12:00:37;24.70;86.10
28839;DHT22;15971;50.772;6.100;2022-07-30T12:03:24;24.60;86.00
28839;DHT22;15971;50.772;6.100;2022-07-30T12:05:51;24.70;86.40
28839;DHT22;15971;50.772;6.100;2022-07-30T12:08:17;24.70;86.30
28839;DHT22;15971;50.772;6.100;2022-07-30T12:10:55;24.80;85.30
28839;DHT22;15971;50.772;6.100;2022-07-30T12:13:20;24.80;85.50
28839;DHT22;15971;50.772;6.100;2022-07-30T12:15:46;24.70;84.90
28839;DHT22;15971;50.772;6.100;2022-07-30T12:18:18;24.70;85.20
28839;DHT22;15971;50.772;6.100;2022-07-30T12:20:53;24.60;85.20
28839;DHT22;15971;50.772;6.100;2022-07-30T12:23:19;24.70;86.10
28839;DHT22;15971;50.772;6.100;2022-07-30T12:25:44;24.70;84.50
28839;DHT22;15971;50.772;6.100;2022-07-30T12:28:17;24.90;84.60
28839;DHT22;15971;50.772;6.100;2022-07-30T12:30:44;25.20;83.50
28839;DHT22;15971;50.772;6.100;2022-07-30T12:33:09;25.60;83.30
28839;DHT22;15971;50.772;6.100;2022-07-30T12:38:10;25.40;83.10
28839;DHT22;15971;50.772;6.100;2022-07-30T12:43:15;25.70;83.50
28839;DHT22;15971;50.772;6.100;2022-07-30T12:45:41;26.30;82.10
28839;DHT22;15971;50.772;6.100;2022-07-30T12:48:11;26.10;80.50
28839;DHT22;15971;50.772;6.100;2022-07-30T12:50:37;25.40;82.10
28839;DHT22;15971;50.772;6.100;2022-07-30T12:53:02;25.00;83.50
28839;DHT22;15971;50.772;6.100;2022-07-30T12:55:30;25.00;83.50
28839;DHT22;15971;50.772;6.100;2022-07-30T12:58:05;25.30;83.10
28839;DHT22;15971;50.772;6.100;2022-07-30T13:00:47;25.50;81.90
28839;DHT22;15971;50.772;6.100;2022-07-30T13:03:27;25.80;82.20
28839;DHT22;15971;50.772;6.100;2022-07-30T13:05:54;25.90;80.90
28839;DHT22;15971;50.772;6.100;2022-07-30T13:08:20;26.20;80.80
28839;DHT22;15971;50.772;6.100;2022-07-30T13:10:59;26.40;80.30
28839;DHT22;15971;50.772;6.100;2022-07-30T13:13:28;26.50;79.40
28839;DHT22;15971;50.772;6.100;2022-07-30T13:15:57;26.20;80.20
28839;DHT22;15971;50.772;6.100;2022-07-30T13:18:23;25.80;81.30
28839;DHT22;15971;50.772;6.100;2022-07-30T13:20:49;26.50;80.30
28839;DHT22;15971;50.772;6.100;2022-07-30T13:23:14;26.60;79.20
28839;DHT22;15971;50.772;6.100;2022-07-30T13:25:40;27.10;77.80
28839;DHT22;15971;50.772;6.100;2022-07-30T13:28:06;26.70;77.20
28839;DHT22;15971;50.772;6.100;2022-07-30T13:30:31;26.60;78.70
28839;DHT22;15971;50.772;6.100;2022-07-30T13:32:57;26.30;78.40
28839;DHT22;15971;50.772;6.100;2022-07-30T13:35:22;26.70;78.60
28839;DHT22;15971;50.772;6.100;2022-07-30T13:37:48;26.60;78.80
28839;DHT22;15971;50.772;6.100;2022-07-30T13:40:13;26.40;78.90
28839;DHT22;15971;50.772;6.100;2022-07-30T13:42:39;26.50;78.60
28839;DHT22;15971;50.772;6.100;2022-07-30T13:45:05;26.20;79.60
28839;DHT22;15971;50.772;6.100;2022-07-30T13:47:31;26.50;78.80
28839;DHT22;15971;50.772;6.100;2022-07-30T13:49:57;26.80;78.10
28839;DHT22;15971;50.772;6.100;2022-07-30T13:52:22;26.60;77.30
28839;DHT22;15971;50.772;6.100;2022-07-30T13:54:48;26.60;77.40
28839;DHT22;15971;50.772;6.100;2022-07-30T13:57:15;26.70;77.50
28839;DHT22;15971;50.772;6.100;2022-07-30T13:59:41;26.40;78.50
28839;DHT22;15971;50.772;6.100;2022-07-30T14:02:07;26.50;78.30
28839;DHT22;15971;50.772;6.100;2022-07-30T14:04:32;26.40;78.50
28839;DHT22;15971;50.772;6.100;2022-07-30T14:06:58;26.20;78.00
28839;DHT22;15971;50.772;6.100;2022-07-30T14:09:24;25.90;78.40
28839;DHT22;15971;50.772;6.100;2022-07-30T14:11:49;25.70;79.10
28839;DHT22;15971;50.772;6.100;2022-07-30T14:14:15;25.60;80.00
28839;DHT22;15971;50.772;6.100;2022-07-30T14:16:41;25.80;79.70
28839;DHT22;15971;50.772;6.100;2022-07-30T14:19:06;25.80;79.30
28839;DHT22;15971;50.772;6.100;2022-07-30T14:21:32;25.80;79.40
28839;DHT22;15971;50.772;6.100;2022-07-30T14:23:58;25.80;79.60
28839;DHT22;15971;50.772;6.100;2022-07-30T14:26:23;25.90;79.00
28839;DHT22;15971;50.772;6.100;2022-07-30T14:28:49;25.40;79.10
28839;DHT22;15971;50.772;6.100;2022-07-30T14:31:14;25.40;80.00
28839;DHT22;15971;50.772;6.100;2022-07-30T14:33:41;25.60;79.80
28839;DHT22;15971;50.772;6.100;2022-07-30T14:36:06;25.70;79.10
28839;DHT22;15971;50.772;6.100;2022-07-30T14:38:32;25.80;79.00
28839;DHT22;15971;50.772;6.100;2022-07-30T14:40:57;25.70;78.60
28839;DHT22;15971;50.772;6.100;2022-07-30T14:43:23;25.70;79.50
28839;DHT22;15971;50.772;6.100;2022-07-30T14:45:51;25.90;78.80
28839;DHT22;15971;50.772;6.100;2022-07-30T14:48:17;26.10;78.60
28839;DHT22;15971;50.772;6.100;2022-07-30T14:50:43;26.00;78.60
28839;DHT22;15971;50.772;6.100;2022-07-30T14:53:08;26.20;79.40
28839;DHT22;15971;50.772;6.100;2022-07-30T14:55:34;26.20;79.00
28839;DHT22;15971;50.772;6.100;2022-07-30T14:58:00;26.20;79.20
28839;DHT22;15971;50.772;6.100;2022-07-30T15:00:25;26.00;78.80
28839;DHT22;15971;50.772;6.100;2022-07-30T15:02:51;26.10;79.40
28839;DHT22;15971;50.772;6.100;2022-07-30T15:05:16;26.10;79.70
28839;DHT22;15971;50.772;6.100;2022-07-30T15:07:42;26.20;78.60
28839;DHT22;15971;50.772;6.100;2022-07-30T15:10:08;26.30;78.70
28839;DHT22;15971;50.772;6.100;2022-07-30T15:12:33;26.30;78.10
28839;DHT22;15971;50.772;6.100;2022-07-30T15:14:59;26.10;79.10
28839;DHT22;15971;50.772;6.100;2022-07-30T15:17:24;26.20;78.50
28839;DHT22;15971;50.772;6.100;2022-07-30T15:19:50;26.30;78.40
28839;DHT22;15971;50.772;6.100;2022-07-30T15:22:18;26.30;77.60
28839;DHT22;15971;50.772;6.100;2022-07-30T15:24:44;25.80;79.00
28839;DHT22;15971;50.772;6.100;2022-07-30T15:27:10;25.80;80.00
28839;DHT22;15971;50.772;6.100;2022-07-30T15:29:35;25.80;79.70
28839;DHT22;15971;50.772;6.100;2022-07-30T15:32:01;25.80;79.90
28839;DHT22;15971;50.772;6.100;2022-07-30T15:34:28;25.80;79.50
28839;DHT22;15971;50.772;6.100;2022-07-30T15:36:58;25.80;79.50
28839;DHT22;15971;50.772;6.100;2022-07-30T15:39:24;25.90;79.60
28839;DHT22;15971;50.772;6.100;2022-07-30T15:41:50;25.90;79.20
28839;DHT22;15971;50.772;6.100;2022-07-30T15:44:18;25.80;79.30
28839;DHT22;15971;50.772;6.100;2022-07-30T15:46:44;25.80;79.50
28839;DHT22;15971;50.772;6.100;2022-07-30T15:49:09;25.80;80.00
28839;DHT22;15971;50.772;6.100;2022-07-30T15:51:36;25.70;79.90
28839;DHT22;15971;50.772;6.100;2022-07-30T15:54:01;25.60;80.00
28839;DHT22;15971;50.772;6.100;2022-07-30T15:56:27;25.60;80.80
28839;DHT22;15971;50.772;6.100;2022-07-30T15:58:54;25.60;80.70
28839;DHT22;15971;50.772;6.100;2022-07-30T16:01:20;25.50;80.70
28839;DHT22;15971;50.772;6.100;2022-07-30T16:03:45;25.60;80.40
28839;DHT22;15971;50.772;6.100;2022-07-30T16:06:11;25.80;80.10
28839;DHT22;15971;50.772;6.100;2022-07-30T16:08:37;26.00;79.20